Portada
METAR-TAF:

METAR-TAF

Aeroports :

Coles County Memorial Airport

Mattoon-Charleston, Illinois, Estats Units d'Amèrica

latitud: 39-28-41N, longitud: 088-16-45W, altitud: 220 m

Observació

L'informe es va fer fa 23 minuts, a les 13:53 UTC
Vent 8 kt del Nord-Oest
Temperatura 3°C
Humitat 87%
Pressió 1010 hPa
Visibilitat: 12.9 km
Cel cobert a una alçada de 1500 ft

METAR: KMTO 181353Z AUTO 31008KT 8SM OVC015 03/01 A2983 RMK AO2 SLP106 T00330011

Hora: 08:16 (14:16 UTC)


TAF: manca

Observacions i pronòstics meteorològics de més de 4000 aeroports (METAR i TAF).

Les estacions disponibles són els punts grocs i vermells al mapa.

Posi el ratolí al punt desitjat per veure el nom de l'estació.

Feu clic per veure les observacions i els pronòstics meteorològics.

Per canviar el mapa: feu clic els botons verds amb una creu de color negre per apropar; al botó verd amb un guió per allunyar la imatge; o en les fletxes verdes per a mapes adjacents.


METAR-TAF: